Argyle, KY

9:14 AM EDT on August 22, 2014 (GMT -0400)
HALLS BACKYARD WEATHER | Change Station
CLOSE
Current Station
Personal Weather Station
Location: SCIENCE HILL, KY
Elevation: 1076 ft
Nearby Weather Stations

Elev 1076 ft 37.19 °N, 84.62 °W | Updated 9 seconds ago

Clear
Clear
79.8 °F
Feels Like 84 °F
N
0.0
Wind Variable Wind from SE
Gusts 6.0 mph

Today
High -- | Low -- °F
--% Chance of Precip.
Yesterday
High -- | Low -- °F
Precip. -- in
7:01 AM 8:22 PM
Waning Crescent, 8% visible
Pressure 30.11 in
Visibility 10.0 miles
Clouds Clear
Heat Index 84 °F
Dew Point 73 °F
Humidity 79%
Rainfall 0.00 in
Snow Depth Not available.
UV 2 out of 12
Pollen 9.60 out of 12
Air Quality Not available.
Flu Activity Not available.
METAR KSME 221255Z AUTO 00000KT 10SM CLR 25/23 A3011 RMK AO2

More Conditions Fewer Conditions

Pressure 30.11 in
Visibility 10.0 miles
Clouds Clear
Heat Index 84 °F
Dew Point 73 °F
Humidity 79%
Rainfall 0.00 in
Snow Depth Not available.
UV 2 out of 12
Pollen 9.60 out of 12
Air Quality Not available.
Flu Activity Not available.
METAR KSME 221255Z AUTO 00000KT 10SM CLR 25/23 A3011 RMK AO2

More Conditions Fewer Conditions

10-Day Weather Forecast

Almanac

Astronomy

Aug. 22, 2014 Rise Set
Actual Time 7:01 AM EDT 8:22 PM EDT
Civil Twilight 6:34 AM EDT 8:49 PM EDT
Nautical Twilight 6:01 AM EDT 9:21 PM EDT
Astronomical Twilight 5:27 AM EDT 9:55 PM EDT
Moon 4:25 AM EDT 6:28 PM EDT
Length of Visible Light 14h 14m
Length of Day
13h 20m
Tomorrow will be 2m 11s shorter.
Waning Crescent, 8% of the Moon is Illuminated
Today
Waning Crescent
Aug 25
New
Sep 2
First Quarter
Sep 8
Full
Sep 15
Last Quarter

Today's Extremes

State Highs State Lows

Community

WunderPhotos

Upload Photos

1,746,160 photos uploaded!

WunderBlogs® & News

Nearby

Snow Depth

Station Depth Elevation
No new snow has been reported.

Earthquake Activity

City Distance Mag. Time & Date
No recent earthquake activity has been reported nearby.
Minimum magnitude displayed is 2.5.

Coastal Water Temperatures

Place Temperature
No Stations Reporting

Nearby Weather Stations